Wednesday, October 18, 2017, 2:43 AM CDT
Back to Local

KTOP, Topeka Billard Municipal Airport

Location: Topeka, KS, United States Lat: 39.067
Local Time: 2:43 AM CDT ( 7:43 GMT) Lon: -95.633
Time Zone: US/Central Elev: 882 ft

Show me the last for .
Show Decoded

2017-10-18 01:53 METAR KTOP 180653Z AUTO 18005KT 10SM CLR 13/08 A3006 RMK AO2 SLP174 T01330083 =
2017-10-18 00:53 METAR KTOP 180553Z AUTO 19007KT 10SM CLR 14/08 A3006 RMK AO2 SLP176 T01440083
                 10200 20144 402390083 58004 =
2017-10-17 23:53 METAR KTOP 180453Z AUTO 19009KT 10SM CLR 14/09 A3007 RMK AO2 SLP178 T01440089 =
2017-10-17 22:53 METAR KTOP 180353Z AUTO 19007KT 10SM CLR 15/09 A3007 RMK AO2 SLP180 T01500089 =
2017-10-17 21:53 METAR KTOP 180253Z AUTO 18007KT 10SM CLR 16/09 A3008 RMK AO2 SLP181 T01560094
                 51009 =
2017-10-17 20:53 METAR KTOP 180153Z AUTO 18005KT 10SM CLR 16/09 A3007 RMK AO2 SLP180 T01610094 =
2017-10-17 19:53 METAR KTOP 180053Z AUTO 16005KT 10SM CLR 17/09 A3006 RMK AO2 SLP178 T01670094 =
2017-10-17 18:53 METAR KTOP 172353Z 17008KT 10SM CLR 20/08 A3005 RMK AO2 SLP172 T02000083 10239
                 20194 55005 =
2017-10-17 17:53 METAR KTOP 172253Z 17009KT 10SM CLR 22/08 A3004 RMK AO2 SLP169 T02220083 =
2017-10-17 16:53 METAR KTOP 172153Z 18011KT 10SM CLR 24/08 A3005 RMK AO2 SLP171 T02390078 =
2017-10-17 15:53 METAR KTOP 172053Z 17013G19KT 10SM CLR 24/08 A3006 RMK AO2 SLP175 T02390078
                 56024 =
2017-10-17 14:53 METAR KTOP 171953Z 18012G18KT 10SM CLR 23/07 A3008 RMK AO2 SLP181 T02330072 =
2017-10-17 13:53 METAR KTOP 171853Z 18012KT 10SM CLR 23/07 A3010 RMK AO2 SLP188 T02280072 =
2017-10-17 12:53 METAR KTOP 171753Z 19013G19KT 10SM CLR 22/06 A3013 RMK AO2 SLP200 T02170061
                 10217 20083 58019 =
2017-10-17 11:53 METAR KTOP 171653Z 18014G18KT 10SM CLR 21/06 A3016 RMK AO2 SLP209 T02060061 =
2017-10-17 10:53 METAR KTOP 171553Z 20012G21KT 10SM CLR 18/06 A3018 RMK AO2 SLP216 T01830061 =
2017-10-17 09:53 METAR KTOP 171453Z 20010G16KT 10SM CLR 16/06 A3019 RMK AO2 SLP222 T01560061
                 50000 =
2017-10-17 08:53 METAR KTOP 171353Z 17004KT 10SM CLR 12/06 A3019 RMK AO2 SLP224 T01220061 =
2017-10-17 07:53 METAR KTOP 171253Z 12003KT 10SM CLR 09/05 A3019 RMK AO2 SLP225 T00890050 =
2017-10-17 06:53 METAR KTOP 171153Z 15003KT 10SM CLR 09/04 A3019 RMK AO2 SLP223 T00890044 10128
                 20089 53002 =
2017-10-17 05:53 METAR KTOP 171053Z AUTO 00000KT 10SM CLR 11/05 A3019 RMK AO2 SLP219 T01110050 =
2017-10-17 04:53 METAR KTOP 170953Z AUTO 18005KT 10SM CLR 11/05 A3018 RMK AO2 SLP218 T01060050 =
2017-10-17 03:53 METAR KTOP 170853Z AUTO 20005KT 10SM CLR 11/06 A3019 RMK AO2 SLP219 T01110056
                 58006 =
2017-10-17 02:53 METAR KTOP 170753Z AUTO 00000KT 10SM CLR 11/06 A3021 RMK AO2 SLP226 T01110056 =

Support USWX by starting your Amazon purchase here.